Belcher, Louisiana
Current Conditions -  °F | °C
As of 5:28 AM on Sunday 21 Dec 2014 (Local Time) from KDTN Reporting Station
Haze Haze  
Wind Chill: 33°   Ceiling: 5000
Heat Index: 33°   Visibility: 2mi
Dew Point: 32°   Wind: 0mph
Humidity: 96%   Direction: NA
Pressure: 30.17"   Gusts: NA
Location:  32.75°N, 93.83°W
Report Text: KDTN 211128Z AUTO 00000KT 2SM BR SCT003 OVC050 01/00 A3017 RMK AO2 T00060000
Loading
Personal Weather Stations






























Interactive Weather Map New forecast layout! Learn more

10-Day Weather Forecast

Advertisements
Track Severe Weather on mobile